createdAt,value
2018-01-03T00:00:43.152Z,2.87
2018-01-03T00:03:11.142Z,4.32
2018-01-03T00:05:39.444Z,2.40
2018-01-03T00:08:08.370Z,1.90
2018-01-03T00:10:36.044Z,4.32
2018-01-03T00:13:03.860Z,5.37
2018-01-03T00:15:31.435Z,8.30
2018-01-03T00:17:59.839Z,5.75
2018-01-03T00:20:28.488Z,5.25
2018-01-03T00:22:56.142Z,2.90
2018-01-03T00:25:23.780Z,3.25
2018-01-03T00:27:51.357Z,4.00
2018-01-03T00:30:19.060Z,5.35
2018-01-03T00:32:46.638Z,5.25
2018-01-03T00:35:14.277Z,3.92
2018-01-03T00:37:41.889Z,3.95
2018-01-03T00:40:10.418Z,2.62
2018-01-03T00:42:38.344Z,3.75
2018-01-03T00:45:06.112Z,2.35
2018-01-03T00:47:33.824Z,5.65
2018-01-03T00:50:01.389Z,10.13
2018-01-03T00:55:10.275Z,4.18
2018-01-03T00:57:37.852Z,5.95
2018-01-03T01:00:05.416Z,3.75
2018-01-03T01:02:33.889Z,3.60
2018-01-03T01:05:01.439Z,3.85
2018-01-03T01:07:29.006Z,4.28
2018-01-03T01:09:56.708Z,2.90
2018-01-03T01:12:24.339Z,4.97
2018-01-03T01:14:51.936Z,3.12
2018-01-03T01:17:19.461Z,5.22
2018-01-03T01:19:47.103Z,7.28
2018-01-03T01:22:14.635Z,3.47
2018-01-03T01:24:42.175Z,3.25
2018-01-03T01:27:10.043Z,2.08
2018-01-03T01:29:37.813Z,5.53
2018-01-03T01:32:05.472Z,2.30
2018-01-03T01:34:33.029Z,2.55
2018-01-03T01:37:00.606Z,3.37
2018-01-03T01:39:28.136Z,3.42
2018-01-03T01:41:56.464Z,2.78
2018-01-03T01:44:24.030Z,2.20
2018-01-03T01:46:51.618Z,5.57
2018-01-03T01:49:19.185Z,2.50
2018-01-03T01:51:46.744Z,2.12
2018-01-03T01:54:14.283Z,1.55
2018-01-03T01:56:41.831Z,2.20
2018-01-03T01:59:09.385Z,1.75
2018-01-03T02:01:36.958Z,4.05
2018-01-03T02:04:04.527Z,7.57
2018-01-03T02:06:32.344Z,2.35
2018-01-03T02:08:59.901Z,5.20
2018-01-03T02:11:27.473Z,1.75
2018-01-03T02:13:55.072Z,9.35
2018-01-03T02:16:22.665Z,2.67
2018-01-03T02:18:51.080Z,0.80
2018-01-03T02:21:18.630Z,5.05
2018-01-03T02:23:46.225Z,1.52
2018-01-03T02:26:13.813Z,2.47
2018-01-03T02:28:42.144Z,4.80
2018-01-03T02:31:09.852Z,4.55
2018-01-03T02:33:38.214Z,4.70
2018-01-03T02:36:05.805Z,2.17
2018-01-03T02:38:34.101Z,3.97
2018-01-03T02:41:01.757Z,2.17
2018-01-03T02:43:30.083Z,1.55
2018-01-03T02:45:57.623Z,5.87
2018-01-03T02:48:25.160Z,2.40
2018-01-03T02:50:53.606Z,2.25
2018-01-03T02:53:21.146Z,1.55
2018-01-03T02:55:49.183Z,3.37
2018-01-03T02:58:16.723Z,3.62
2018-01-03T03:00:45.007Z,3.78
2018-01-03T03:03:12.593Z,2.35
2018-01-03T03:05:40.185Z,1.80
2018-01-03T03:08:07.724Z,2.10
2018-01-03T03:10:36.184Z,4.53
2018-01-03T03:13:03.908Z,9.10
2018-01-03T03:15:32.112Z,3.12
2018-01-03T03:18:00.530Z,0.80
2018-01-03T03:20:28.827Z,1.65
2018-01-03T03:22:56.732Z,1.58
2018-01-03T03:25:24.282Z,1.27
2018-01-03T03:27:51.837Z,1.37
2018-01-03T03:30:19.416Z,6.28
2018-01-03T03:32:47.014Z,1.52
2018-01-03T03:35:15.955Z,1.17
2018-01-03T03:37:43.804Z,1.52
2018-01-03T03:40:11.368Z,1.12
2018-01-03T03:42:39.660Z,2.95
2018-01-03T03:45:07.207Z,1.35
2018-01-03T03:47:34.800Z,4.53
2018-01-03T03:50:03.154Z,2.47
2018-01-03T03:52:31.501Z,2.92
2018-01-03T03:54:59.089Z,3.15
2018-01-03T03:57:26.683Z,1.80
2018-01-03T03:59:55.068Z,1.40
2018-01-03T04:02:23.345Z,1.00
2018-01-03T04:04:51.040Z,2.25
2018-01-03T04:07:18.638Z,6.07
2018-01-03T04:09:46.163Z,2.25
2018-01-03T04:12:13.721Z,4.07
2018-01-03T04:14:41.330Z,3.12
2018-01-03T04:17:08.841Z,1.58
2018-01-03T04:19:36.695Z,2.62
2018-01-03T04:22:04.335Z,2.20
2018-01-03T04:24:32.673Z,0.93
2018-01-03T04:27:00.969Z,7.47
2018-01-03T04:29:29.326Z,1.00
2018-01-03T04:31:56.930Z,1.60
2018-01-03T04:34:24.474Z,0.80
2018-01-03T04:36:52.842Z,1.58
2018-01-03T04:39:21.169Z,2.70
2018-01-03T04:41:48.688Z,1.65
2018-01-03T04:44:16.245Z,4.15
2018-01-03T04:46:44.673Z,1.52
2018-01-03T04:49:12.226Z,1.50
2018-01-03T04:51:39.877Z,1.85
2018-01-03T04:54:07.373Z,3.03
2018-01-03T04:56:35.911Z,1.90
2018-01-03T04:59:03.465Z,2.75
2018-01-03T05:01:31.036Z,4.80
2018-01-03T05:03:58.611Z,2.10
2018-01-03T05:06:26.183Z,0.80
2018-01-03T05:08:54.668Z,4.53
2018-01-03T05:11:22.233Z,3.95
2018-01-03T05:13:49.888Z,1.45
2018-01-03T05:16:17.450Z,3.17
2018-01-03T05:18:45.019Z,2.80
2018-01-03T05:21:12.614Z,0.90
2018-01-03T05:23:40.170Z,1.35
2018-01-03T05:26:08.543Z,5.20
2018-01-03T05:28:37.783Z,5.30
2018-01-03T05:31:05.335Z,2.97
2018-01-03T05:33:32.904Z,2.50
2018-01-03T05:36:01.117Z,3.67
2018-01-03T05:38:28.714Z,2.70
2018-01-03T05:40:56.275Z,12.98
2018-01-03T05:43:23.844Z,4.32
2018-01-03T05:45:51.386Z,5.03
2018-01-03T05:48:19.691Z,2.15
2018-01-03T05:50:47.372Z,2.90
2018-01-03T05:53:15.772Z,5.20
2018-01-03T05:55:44.150Z,9.52
2018-01-03T05:58:11.733Z,4.70
2018-01-03T06:00:40.422Z,5.57
2018-01-03T06:03:08.029Z,4.82
2018-01-03T06:05:36.878Z,9.70
2018-01-03T06:08:05.666Z,9.60
2018-01-03T06:10:33.287Z,6.45
2018-01-03T06:13:00.895Z,8.13
2018-01-03T06:15:28.509Z,4.22
2018-01-03T06:17:56.079Z,4.18
2018-01-03T06:20:23.701Z,11.35
2018-01-03T06:22:51.363Z,12.23
2018-01-03T06:25:18.921Z,20.73
2018-01-03T06:27:46.571Z,14.07
2018-01-03T06:30:14.355Z,6.47
2018-01-03T06:32:41.897Z,4.15
2018-01-03T06:35:09.650Z,14.40
2018-01-03T06:37:37.279Z,8.80
2018-01-03T06:40:05.619Z,15.27
2018-01-03T06:42:33.252Z,11.25
2018-01-03T06:45:00.930Z,15.50
2018-01-03T06:47:28.449Z,9.13
2018-01-03T06:49:56.857Z,10.85
2018-01-03T06:52:24.478Z,16.92
2018-01-03T06:54:52.417Z,11.65
2018-01-03T06:57:19.972Z,8.23
2018-01-03T06:59:47.575Z,6.05
2018-01-03T07:02:15.953Z,5.18
2018-01-03T07:04:43.795Z,9.85
2018-01-03T07:07:11.440Z,9.20
2018-01-03T07:09:39.061Z,12.80
2018-01-03T07:12:06.654Z,11.52
2018-01-03T07:14:34.224Z,34.13
2018-01-03T07:17:01.754Z,8.00
2018-01-03T07:19:29.931Z,10.15
2018-01-03T07:21:58.113Z,6.30
2018-01-03T07:24:25.680Z,12.77
2018-01-03T07:26:53.928Z,12.52
2018-01-03T07:29:21.457Z,12.20
2018-01-03T07:31:49.403Z,6.00
2018-01-03T07:34:17.014Z,8.00
2018-01-03T07:36:45.534Z,7.55
2018-01-03T07:39:13.238Z,9.68
2018-01-03T07:41:41.612Z,12.57
2018-01-03T07:44:09.296Z,13.27
2018-01-03T07:46:37.613Z,6.72
2018-01-03T07:49:05.169Z,5.95
2018-01-03T07:51:33.390Z,6.85
2018-01-03T07:54:00.934Z,8.65
2018-01-03T07:56:28.508Z,8.65
2018-01-03T07:58:56.111Z,7.15
2018-01-03T08:01:23.709Z,1.83
2018-01-03T08:03:51.413Z,5.55
2018-01-03T08:06:19.821Z,3.15
2018-01-03T08:08:47.375Z,3.25
2018-01-03T08:11:14.967Z,4.53
2018-01-03T08:13:42.481Z,5.70
2018-01-03T08:16:10.092Z,2.65
2018-01-03T08:18:38.453Z,5.10
2018-01-03T08:21:06.069Z,4.25
2018-01-03T08:23:33.673Z,1.58
2018-01-03T08:26:01.255Z,4.68
2018-01-03T08:28:29.582Z,3.00
2018-01-03T08:30:57.136Z,4.32
2018-01-03T08:33:24.870Z,3.10
2018-01-03T08:35:53.206Z,2.17
2018-01-03T08:38:21.212Z,3.12
2018-01-03T08:40:48.747Z,1.87
2018-01-03T08:43:16.591Z,9.30
2018-01-03T08:45:44.122Z,1.85
2018-01-03T08:48:11.673Z,3.22
2018-01-03T08:50:39.246Z,6.03
2018-01-03T08:53:07.850Z,4.82
2018-01-03T08:55:36.262Z,5.50
2018-01-03T08:58:03.818Z,3.30
2018-01-03T09:00:31.517Z,2.40
2018-01-03T09:02:59.512Z,7.50
2018-01-03T09:05:27.105Z,9.27
2018-01-03T09:07:54.685Z,4.18
2018-01-03T09:10:22.258Z,5.80
2018-01-03T09:12:50.603Z,4.65
2018-01-03T09:15:18.976Z,4.32
2018-01-03T09:17:46.617Z,6.87
2018-01-03T09:20:15.065Z,11.48
2018-01-03T09:22:42.585Z,7.00
2018-01-03T09:25:10.187Z,12.43
2018-01-03T09:27:37.712Z,12.18
2018-01-03T09:30:05.288Z,6.90
2018-01-03T09:32:33.721Z,5.35
2018-01-03T09:35:01.305Z,13.02
2018-01-03T09:37:29.668Z,5.35
2018-01-03T09:39:57.216Z,12.02
2018-01-03T09:42:25.664Z,7.82
2018-01-03T09:44:53.354Z,14.18
2018-01-03T09:47:20.941Z,7.82
2018-01-03T09:49:48.483Z,11.02
2018-01-03T09:52:16.139Z,6.35
2018-01-03T09:54:43.771Z,10.88
2018-01-03T09:57:11.349Z,9.30
2018-01-03T09:59:38.906Z,8.43
2018-01-03T10:02:06.609Z,13.32
2018-01-03T10:04:34.236Z,9.68
2018-01-03T10:07:01.812Z,11.85
2018-01-03T10:09:29.499Z,13.45
2018-01-03T10:11:57.153Z,26.75
2018-01-03T10:14:24.725Z,13.98
2018-01-03T10:16:53.266Z,18.48
2018-01-03T10:19:20.822Z,6.37
2018-01-03T10:21:48.387Z,17.15
2018-01-03T10:24:15.980Z,14.70
2018-01-03T10:26:44.587Z,14.80
2018-01-03T10:29:13.582Z,7.07
2018-01-03T10:31:41.910Z,13.57
2018-01-03T10:34:09.484Z,18.67
2018-01-03T10:36:37.487Z,16.55
2018-01-03T10:39:05.082Z,11.18
2018-01-03T10:41:32.641Z,10.57
2018-01-03T10:44:00.548Z,15.73
2018-01-03T10:46:28.103Z,11.48
2018-01-03T10:48:55.684Z,5.97
2018-01-03T10:51:23.338Z,8.98
2018-01-03T10:53:50.985Z,12.90
2018-01-03T10:56:18.574Z,8.85
2018-01-03T10:58:46.132Z,8.48
2018-01-03T11:01:14.426Z,12.98
2018-01-03T11:03:41.990Z,9.18
2018-01-03T11:06:09.586Z,12.02
2018-01-03T11:08:37.123Z,22.92
2018-01-03T11:11:04.705Z,14.23
2018-01-03T11:13:32.284Z,15.80
2018-01-03T11:15:59.878Z,12.27
2018-01-03T11:18:27.468Z,5.72
2018-01-03T11:20:55.046Z,18.70
2018-01-03T11:23:22.679Z,9.35
2018-01-03T11:25:50.256Z,9.80
2018-01-03T11:28:17.799Z,4.93
2018-01-03T11:30:46.042Z,3.33
2018-01-03T11:33:13.603Z,11.95
2018-01-03T11:35:42.051Z,6.70
2018-01-03T11:38:09.660Z,19.10
2018-01-03T11:40:37.215Z,12.85
2018-01-03T11:43:04.729Z,14.65
2018-01-03T11:45:32.338Z,9.20
2018-01-03T11:48:00.041Z,4.50
2018-01-03T11:50:27.612Z,3.40
2018-01-03T11:52:55.177Z,12.68
2018-01-03T11:55:22.815Z,8.70
2018-01-03T11:57:50.391Z,11.40
2018-01-03T12:00:17.970Z,8.15
2018-01-03T12:02:45.534Z,8.48
2018-01-03T12:05:14.736Z,7.05
2018-01-03T12:07:42.317Z,16.05
2018-01-03T12:10:09.885Z,7.93
2018-01-03T12:12:37.870Z,8.02
2018-01-03T12:15:05.417Z,7.15
2018-01-03T12:17:33.006Z,3.78
2018-01-03T12:20:00.563Z,4.45
2018-01-03T12:22:28.107Z,6.47
2018-01-03T12:24:55.665Z,6.95
2018-01-03T12:27:23.260Z,14.32
2018-01-03T12:29:50.915Z,8.65
2018-01-03T12:32:18.594Z,10.75
2018-01-03T12:34:46.446Z,19.37
2018-01-03T12:37:14.319Z,16.95
2018-01-03T12:39:41.979Z,13.15
2018-01-03T12:42:09.611Z,9.80
2018-01-03T12:44:37.129Z,5.03
2018-01-03T12:47:04.675Z,8.02
2018-01-03T12:49:33.014Z,9.40
2018-01-03T12:52:00.615Z,3.22
2018-01-03T12:54:28.162Z,9.40
2018-01-03T12:56:55.773Z,12.75
2018-01-03T12:59:23.317Z,7.53
2018-01-03T13:01:50.913Z,8.18
2018-01-03T13:04:18.451Z,15.50
2018-01-03T13:06:46.444Z,5.30
2018-01-03T13:09:14.060Z,6.28
2018-01-03T13:11:42.352Z,10.32
2018-01-03T13:14:09.878Z,8.20
2018-01-03T13:16:38.247Z,19.50
2018-01-03T13:19:05.801Z,14.13
2018-01-03T13:21:33.598Z,10.80
2018-01-03T13:24:01.156Z,12.93
2018-01-03T13:26:28.719Z,7.60
2018-01-03T13:28:57.036Z,15.82
2018-01-03T13:31:24.590Z,5.53
2018-01-03T13:33:52.175Z,11.45
2018-01-03T13:36:20.361Z,18.15
2018-01-03T13:38:47.987Z,9.73
2018-01-03T13:41:15.580Z,11.57
2018-01-03T13:43:43.114Z,10.45
2018-01-03T13:46:10.768Z,11.63
2018-01-03T13:48:38.372Z,17.25
2018-01-03T13:51:05.944Z,15.55
2018-01-03T13:53:33.588Z,22.83
2018-01-03T13:56:01.210Z,6.78
2018-01-03T13:58:28.876Z,8.05
2018-01-03T14:00:56.462Z,13.18
2018-01-03T14:03:25.132Z,13.27
2018-01-03T14:05:52.689Z,15.43
2018-01-03T14:08:20.288Z,17.67
2018-01-03T14:10:47.878Z,17.85
2018-01-03T14:13:15.431Z,21.20
2018-01-03T14:15:43.026Z,13.00
2018-01-03T14:18:10.660Z,7.65
2018-01-03T14:20:38.433Z,11.48
2018-01-03T14:23:06.035Z,14.70
2018-01-03T14:25:33.860Z,9.45
2018-01-03T14:28:01.453Z,16.87
2018-01-03T14:30:29.017Z,11.45
2018-01-03T14:32:57.550Z,9.95
2018-01-03T14:35:26.160Z,16.62
2018-01-03T14:37:55.185Z,16.70
2018-01-03T14:40:22.816Z,19.52
2018-01-03T14:42:50.684Z,12.27
2018-01-03T14:45:18.281Z,17.15
2018-01-03T14:47:46.131Z,14.13
2018-01-03T14:50:13.753Z,12.13
2018-01-03T14:52:41.282Z,17.25
2018-01-03T14:55:09.918Z,28.05
2018-01-03T14:57:37.449Z,21.00
2018-01-03T15:00:05.016Z,16.92
2018-01-03T15:02:33.556Z,10.65
2018-01-03T15:05:01.189Z,15.80
2018-01-03T15:07:29.019Z,11.60
2018-01-03T15:09:57.497Z,10.43
2018-01-03T15:12:25.064Z,20.62
2018-01-03T15:14:52.643Z,18.27
2018-01-03T15:17:20.181Z,17.50
2018-01-03T15:19:47.724Z,15.77
2018-01-03T15:22:17.210Z,10.80
2018-01-03T15:24:44.804Z,17.05
2018-01-03T15:27:13.259Z,10.20
2018-01-03T15:29:40.789Z,13.52
2018-01-03T15:32:09.171Z,12.15
2018-01-03T15:34:37.525Z,13.40
2018-01-03T15:37:05.406Z,23.17
2018-01-03T15:39:32.932Z,13.80
2018-01-03T15:42:00.588Z,9.23
2018-01-03T15:44:28.313Z,7.78
2018-01-03T15:46:56.841Z,8.65
2018-01-03T15:49:24.433Z,12.60
2018-01-03T15:51:51.974Z,10.70
2018-01-03T15:54:19.530Z,9.45
2018-01-03T15:56:47.176Z,10.43
2018-01-03T15:59:14.757Z,2.10
2018-01-03T16:01:42.360Z,3.90
2018-01-03T16:04:10.295Z,7.30
2018-01-03T16:06:38.999Z,7.68
2018-01-03T16:09:06.693Z,5.28
2018-01-03T16:11:36.239Z,10.10
2018-01-03T16:14:04.528Z,5.43
2018-01-03T16:16:32.591Z,6.80
2018-01-03T16:19:00.960Z,7.65
2018-01-03T16:21:29.477Z,11.68
2018-01-03T16:23:57.084Z,9.43
2018-01-03T16:26:24.661Z,2.90
2018-01-03T16:28:53.058Z,6.87
2018-01-03T16:31:20.618Z,14.00
2018-01-03T16:33:48.222Z,6.12
2018-01-03T16:36:15.765Z,4.78
2018-01-03T16:38:43.312Z,9.13
2018-01-03T16:41:11.306Z,12.10
2018-01-03T16:43:38.897Z,17.27
2018-01-03T16:46:06.485Z,5.80
2018-01-03T16:48:34.938Z,8.18
2018-01-03T16:51:03.331Z,9.63
2018-01-03T16:53:31.689Z,8.68
2018-01-03T16:55:59.513Z,10.80
2018-01-03T16:58:27.138Z,6.53
2018-01-03T17:00:55.523Z,17.52
2018-01-03T17:03:24.509Z,13.10
2018-01-03T17:05:52.864Z,12.75
2018-01-03T17:08:20.614Z,10.05
2018-01-03T17:10:48.183Z,25.98
2018-01-03T17:13:17.225Z,13.82
2018-01-03T17:15:44.837Z,11.38
2018-01-03T17:18:12.525Z,5.20
2018-01-03T17:20:42.579Z,15.65
2018-01-03T17:23:10.185Z,17.35
2018-01-03T17:25:37.800Z,9.98
2018-01-03T17:28:05.366Z,11.05
2018-01-03T17:30:32.998Z,16.42
2018-01-03T17:33:00.571Z,11.35
2018-01-03T17:35:28.180Z,10.32
2018-01-03T17:37:55.709Z,15.27
2018-01-03T17:40:23.527Z,10.82
2018-01-03T17:42:51.064Z,14.18
2018-01-03T17:45:18.674Z,5.25
2018-01-03T17:47:47.219Z,11.95
2018-01-03T17:50:15.465Z,5.57
2018-01-03T17:52:43.811Z,7.03
2018-01-03T17:55:11.658Z,24.37
2018-01-03T17:57:39.350Z,14.20
2018-01-03T18:00:07.859Z,19.90
2018-01-03T18:02:35.438Z,27.92
2018-01-03T18:05:10.196Z,17.95
2018-01-03T18:07:37.777Z,11.00
2018-01-03T18:10:05.395Z,9.13
2018-01-03T18:12:33.100Z,12.20
2018-01-03T18:15:01.028Z,12.55
2018-01-03T18:17:28.775Z,7.45
2018-01-03T18:19:56.476Z,15.32
2018-01-03T18:22:24.129Z,8.27
2018-01-03T18:24:51.715Z,17.85
2018-01-03T18:27:19.352Z,14.48
2018-01-03T18:29:48.021Z,13.52
2018-01-03T18:32:15.739Z,16.12
2018-01-03T18:34:44.156Z,14.80
2018-01-03T18:37:11.728Z,24.45
2018-01-03T18:39:39.377Z,15.57
2018-01-03T18:42:06.984Z,16.77
2018-01-03T18:44:59.217Z,11.07
2018-01-03T18:47:27.217Z,32.75
2018-01-03T18:49:54.822Z,8.57
2018-01-03T18:52:22.556Z,7.68
2018-01-03T18:54:50.157Z,9.75
2018-01-03T18:57:17.821Z,6.35
2018-01-03T18:59:45.583Z,11.40
2018-01-03T19:02:13.171Z,7.12
2018-01-03T19:04:41.476Z,6.05
2018-01-03T19:07:09.261Z,10.63
2018-01-03T19:09:36.906Z,15.85
2018-01-03T19:12:04.451Z,6.30
2018-01-03T19:14:32.120Z,8.75
2018-01-03T19:16:59.735Z,13.50
2018-01-03T19:19:27.264Z,6.97
2018-01-03T19:21:55.069Z,14.40
2018-01-03T19:24:22.937Z,5.90
2018-01-03T19:26:50.551Z,9.30
2018-01-03T19:29:18.128Z,9.93
2018-01-03T19:31:45.659Z,12.23
2018-01-03T19:34:13.250Z,15.25
2018-01-03T19:36:41.054Z,17.17
2018-01-03T19:39:08.593Z,16.55
2018-01-03T19:41:36.171Z,20.48
2018-01-03T19:44:03.729Z,17.73
2018-01-03T19:46:31.404Z,13.93
2018-01-03T19:48:59.751Z,15.38
2018-01-03T19:51:28.167Z,25.85
2018-01-03T19:53:55.745Z,12.77
2018-01-03T19:56:23.309Z,11.52
2018-01-03T19:58:51.093Z,12.95
2018-01-03T20:01:18.672Z,24.95
2018-01-03T20:03:46.470Z,20.35
2018-01-03T20:06:14.140Z,20.25
2018-01-03T20:08:42.656Z,7.85
2018-01-03T20:11:10.223Z,10.43
2018-01-03T20:13:37.796Z,16.10
2018-01-03T20:16:05.499Z,12.70
2018-01-03T20:18:33.265Z,18.60
2018-01-03T20:21:00.934Z,18.23
2018-01-03T20:23:29.640Z,13.48
2018-01-03T20:25:58.159Z,12.57
2018-01-03T20:28:25.820Z,14.85
2018-01-03T20:30:53.495Z,4.62
2018-01-03T20:33:21.157Z,6.50
2018-01-03T20:35:48.727Z,6.78
2018-01-03T20:38:16.276Z,9.55
2018-01-03T20:40:43.866Z,6.40
2018-01-03T20:43:11.438Z,7.15
2018-01-03T20:45:39.090Z,5.87
2018-01-03T20:48:06.805Z,12.40
2018-01-03T20:50:34.439Z,3.78
2018-01-03T20:53:02.056Z,11.35
2018-01-03T20:55:29.605Z,14.10
2018-01-03T20:57:57.162Z,16.17
2018-01-03T21:00:24.750Z,6.12
2018-01-03T21:02:52.322Z,6.12
2018-01-03T21:05:19.882Z,13.57
2018-01-03T21:07:47.442Z,6.30
2018-01-03T21:10:15.025Z,6.35
2018-01-03T21:12:42.909Z,11.43
2018-01-03T21:15:10.588Z,10.02
2018-01-03T21:17:38.212Z,18.52
2018-01-03T21:20:05.843Z,11.02
2018-01-03T21:22:33.477Z,12.65
2018-01-03T21:25:01.196Z,20.23
2018-01-03T21:27:28.777Z,18.12
2018-01-03T21:29:56.378Z,17.70
2018-01-03T21:32:24.983Z,11.70
2018-01-03T21:34:52.720Z,21.67
2018-01-03T21:37:20.490Z,9.32
2018-01-03T21:39:48.249Z,12.23
2018-01-03T21:42:15.882Z,8.82
2018-01-03T21:44:43.505Z,4.53
2018-01-03T21:47:11.184Z,3.80
2018-01-03T21:49:38.812Z,7.68
2018-01-03T21:52:06.526Z,1.60
2018-01-03T21:54:34.260Z,8.27
2018-01-03T21:57:02.027Z,2.70
2018-01-03T21:59:29.927Z,11.63
2018-01-03T22:01:57.585Z,8.20
2018-01-03T22:04:25.952Z,12.90
2018-01-03T22:06:53.577Z,22.73
2018-01-03T22:09:21.188Z,14.87
2018-01-03T22:11:48.761Z,7.12
2018-01-03T22:14:17.270Z,12.43
2018-01-03T22:16:45.654Z,9.57
2018-01-03T22:19:13.370Z,21.95
2018-01-03T22:21:40.965Z,14.10
2018-01-03T22:24:09.001Z,20.08
2018-01-03T22:26:36.729Z,21.67
2018-01-03T22:29:04.575Z,31.98
2018-01-03T22:31:32.294Z,20.33
2018-01-03T22:33:59.971Z,16.87
2018-01-03T22:36:27.557Z,21.77
2018-01-03T22:38:55.324Z,16.60
2018-01-03T22:41:23.669Z,26.20
2018-01-03T22:43:51.261Z,12.93
2018-01-03T22:46:18.995Z,22.27
2018-01-03T22:48:46.610Z,19.70
2018-01-03T22:51:14.309Z,19.77
2018-01-03T22:53:42.704Z,35.83
2018-01-03T22:56:11.442Z,25.75
2018-01-03T22:58:39.082Z,26.15
2018-01-03T23:01:08.324Z,25.02
2018-01-03T23:03:36.172Z,17.83
2018-01-03T23:06:04.303Z,25.85
2018-01-03T23:08:32.199Z,38.63
2018-01-03T23:10:59.805Z,39.63
2018-01-03T23:13:27.465Z,36.47
2018-01-03T23:15:55.113Z,42.35
2018-01-03T23:18:23.713Z,28.42
2018-01-03T23:20:52.140Z,26.25
2018-01-03T23:23:19.719Z,33.63
2018-01-03T23:25:47.485Z,26.58
2018-01-03T23:28:15.103Z,11.90
2018-01-03T23:30:54.605Z,21.90
2018-01-03T23:33:22.995Z,32.22
2018-01-03T23:35:51.339Z,24.87
2018-01-03T23:38:18.964Z,29.73
2018-01-03T23:40:46.571Z,29.33
2018-01-03T23:43:14.216Z,18.90
2018-01-03T23:45:41.805Z,35.28
2018-01-03T23:48:09.373Z,24.27
2018-01-03T23:50:36.939Z,44.70
2018-01-03T23:53:04.564Z,24.52
2018-01-03T23:55:32.190Z,29.58
2018-01-03T23:58:00.302Z,32.45
